createdAt,value
2019-01-28T00:02:25.166Z,94046.49
2019-01-28T00:04:51.547Z,94047.87
2019-01-28T00:07:18.127Z,94051.97
2019-01-28T00:09:44.641Z,94050.78
2019-01-28T00:12:10.996Z,94058.45
2019-01-28T00:14:37.334Z,94061.70
2019-01-28T00:17:03.710Z,94065.08
2019-01-28T00:19:30.136Z,94060.88
2019-01-28T00:21:56.472Z,94066.72
2019-01-28T00:24:22.811Z,94065.21
2019-01-28T00:26:49.134Z,94077.27
2019-01-28T00:29:15.542Z,94076.68
2019-01-28T00:31:41.940Z,94065.53
2019-01-28T00:34:08.297Z,94058.91
2019-01-28T00:36:35.727Z,94056.45
2019-01-28T00:39:00.985Z,94050.42
2019-01-28T00:41:27.363Z,94047.77
2019-01-28T00:43:53.691Z,94053.80
2019-01-28T00:46:21.026Z,94044.27
2019-01-28T00:48:46.442Z,94050.55
2019-01-28T00:51:12.782Z,94040.56
2019-01-28T00:53:39.110Z,94042.07
2019-01-28T00:56:05.530Z,94034.63
2019-01-28T00:58:32.109Z,94025.52
2019-01-28T01:00:58.445Z,94018.24
2019-01-28T01:03:24.779Z,94030.80
2019-01-28T01:05:51.165Z,94021.62
2019-01-28T01:08:17.608Z,94020.87
2019-01-28T01:10:43.942Z,94023.88
2019-01-28T01:13:10.301Z,94031.22
2019-01-28T01:15:36.698Z,94022.20
2019-01-28T01:18:03.062Z,94025.81
2019-01-28T01:20:29.434Z,94024.07
2019-01-28T01:22:55.829Z,94028.95
2019-01-28T01:25:22.328Z,94023.84
2019-01-28T01:27:48.664Z,94014.88
2019-01-28T01:30:15.088Z,94000.81
2019-01-28T01:32:41.462Z,94011.64
2019-01-28T01:35:07.804Z,94010.72
2019-01-28T01:37:34.115Z,94010.72
2019-01-28T01:40:00.519Z,94008.70
2019-01-28T01:42:26.853Z,94000.94
2019-01-28T01:44:53.213Z,93987.88
2019-01-28T01:47:19.543Z,93996.16
2019-01-28T01:49:45.949Z,93988.14
2019-01-28T01:52:12.283Z,93979.97
2019-01-28T01:54:38.693Z,93978.45
2019-01-28T01:57:05.066Z,93973.47
2019-01-28T01:59:31.511Z,93965.78
2019-01-28T02:01:57.887Z,93972.06
2019-01-28T02:04:24.226Z,93987.64
2019-01-28T02:06:50.567Z,93986.02
2019-01-28T02:09:17.085Z,93992.52
2019-01-28T02:11:43.603Z,93988.75
2019-01-28T02:14:09.938Z,93975.38
2019-01-28T02:16:36.277Z,93968.17
2019-01-28T02:19:02.620Z,93986.91
2019-01-28T02:21:28.952Z,93991.33
2019-01-28T02:23:55.343Z,93977.00
2019-01-28T02:26:21.669Z,93968.47
2019-01-28T02:28:48.039Z,93969.51
2019-01-28T02:31:14.431Z,93970.79
2019-01-28T02:33:40.813Z,93964.84
2019-01-28T02:36:07.169Z,93974.03
2019-01-28T02:38:33.769Z,93974.38
2019-01-28T02:41:00.242Z,93969.23
2019-01-28T02:43:26.536Z,93964.31
2019-01-28T02:45:52.960Z,93949.77
2019-01-28T02:48:19.264Z,93959.09
2019-01-28T02:50:45.602Z,93947.88
2019-01-28T02:53:12.029Z,93944.14
2019-01-28T02:55:38.326Z,93950.44
2019-01-28T02:58:04.715Z,93944.25
2019-01-28T03:00:31.073Z,93940.30
2019-01-28T03:02:57.455Z,93931.33
2019-01-28T03:05:23.897Z,93927.70
2019-01-28T03:07:50.299Z,93927.23
2019-01-28T03:10:16.766Z,93925.70
2019-01-28T03:12:43.301Z,93927.55
2019-01-28T03:15:09.694Z,93923.91
2019-01-28T03:17:36.039Z,93925.05
2019-01-28T03:20:02.370Z,93923.31
2019-01-28T03:22:28.705Z,93930.17
2019-01-28T03:24:55.125Z,93925.62
2019-01-28T03:27:21.443Z,93927.86
2019-01-28T03:29:47.810Z,93932.13
2019-01-28T03:32:14.227Z,93930.16
2019-01-28T03:34:40.590Z,93934.34
2019-01-28T03:37:06.908Z,93944.08
2019-01-28T03:39:33.239Z,93952.47
2019-01-28T03:41:59.622Z,93946.42
2019-01-28T03:44:25.965Z,93940.02
2019-01-28T03:46:52.356Z,93945.59
2019-01-28T03:49:18.749Z,93941.15
2019-01-28T03:51:45.107Z,93944.17
2019-01-28T03:54:11.437Z,93937.03
2019-01-28T03:56:37.825Z,93930.98
2019-01-28T03:59:04.203Z,93937.23
2019-01-28T04:01:30.543Z,93936.30
2019-01-28T04:03:56.940Z,93931.38
2019-01-28T04:06:23.381Z,93927.27
2019-01-28T04:08:53.212Z,93921.80
2019-01-28T04:11:19.608Z,93920.45
2019-01-28T04:13:46.064Z,93919.73
2019-01-28T04:16:12.487Z,93926.23
2019-01-28T04:18:38.831Z,93925.88
2019-01-28T04:21:05.241Z,93934.48
2019-01-28T04:23:31.700Z,93936.94
2019-01-28T04:25:58.107Z,93931.31
2019-01-28T04:28:24.386Z,93935.86
2019-01-28T04:30:50.754Z,93930.94
2019-01-28T04:33:17.223Z,93933.91
2019-01-28T04:35:43.566Z,93936.98
2019-01-28T04:38:09.909Z,93925.63
2019-01-28T04:40:36.239Z,93926.45
2019-01-28T04:43:02.634Z,93925.84
2019-01-28T04:45:29.036Z,93926.05
2019-01-28T04:47:55.370Z,93922.75
2019-01-28T04:50:21.728Z,93918.44
2019-01-28T04:52:48.070Z,93925.52
2019-01-28T04:55:14.486Z,93935.87
2019-01-28T04:57:40.940Z,93930.47
2019-01-28T05:00:07.347Z,93931.17
2019-01-28T05:02:33.800Z,93930.94
2019-01-28T05:05:00.306Z,93930.09
2019-01-28T05:07:26.582Z,93925.05
2019-01-28T05:09:53.002Z,93924.89
2019-01-28T05:12:19.410Z,93920.23
2019-01-28T05:14:46.014Z,93922.80
2019-01-28T05:17:12.379Z,93923.61
2019-01-28T05:19:38.709Z,93921.59
2019-01-28T05:22:05.129Z,93928.22
2019-01-28T05:24:31.415Z,93926.37
2019-01-28T05:26:57.823Z,93927.52
2019-01-28T05:29:24.246Z,93915.15
2019-01-28T05:31:50.561Z,93919.00
2019-01-28T05:34:16.900Z,93919.08
2019-01-28T05:36:43.206Z,93920.71
2019-01-28T05:39:09.621Z,93923.59
2019-01-28T05:41:35.988Z,93920.45
2019-01-28T05:44:02.318Z,93918.55
2019-01-28T05:46:28.677Z,93903.76
2019-01-28T05:48:55.014Z,93907.19
2019-01-28T05:51:21.411Z,93912.41
2019-01-28T05:53:47.684Z,93912.13
2019-01-28T05:56:14.071Z,93912.47
2019-01-28T05:58:40.409Z,93922.83
2019-01-28T06:01:06.763Z,93916.92
2019-01-28T06:03:33.095Z,93917.89
2019-01-28T06:05:59.429Z,93913.42
2019-01-28T06:08:25.765Z,93914.23
2019-01-28T06:10:52.213Z,93910.50
2019-01-28T06:13:18.545Z,93880.27
2019-01-28T06:15:45.007Z,93919.10
2019-01-28T06:18:11.561Z,93926.73
2019-01-28T06:20:38.092Z,93930.20
2019-01-28T06:23:04.445Z,93923.39
2019-01-28T06:25:30.861Z,93926.00
2019-01-28T06:27:57.203Z,93927.02
2019-01-28T06:30:24.204Z,93930.28
2019-01-28T06:32:50.565Z,93925.95
2019-01-28T06:35:17.040Z,93929.31
2019-01-28T06:37:43.429Z,93927.75
2019-01-28T06:40:09.821Z,93918.72
2019-01-28T06:42:36.374Z,93925.14
2019-01-28T06:45:02.688Z,93925.61
2019-01-28T06:47:29.036Z,93917.83
2019-01-28T06:49:55.436Z,93922.15
2019-01-28T06:52:21.788Z,93922.30
2019-01-28T06:54:48.122Z,93924.86
2019-01-28T06:57:14.541Z,93925.99
2019-01-28T06:59:40.842Z,93922.09
2019-01-28T07:02:07.219Z,93916.16
2019-01-28T07:04:33.827Z,93915.94
2019-01-28T07:07:00.115Z,93915.33
2019-01-28T07:09:26.626Z,93920.20
2019-01-28T07:11:52.924Z,93923.69
2019-01-28T07:14:19.354Z,93924.73
2019-01-28T07:16:45.734Z,93928.98
2019-01-28T07:19:12.043Z,93926.09
2019-01-28T07:21:38.524Z,93932.80
2019-01-28T07:24:04.855Z,93934.81
2019-01-28T07:26:31.267Z,93935.78
2019-01-28T07:28:57.740Z,93925.47
2019-01-28T07:31:24.134Z,93921.61
2019-01-28T07:33:50.591Z,93922.61
2019-01-28T07:36:17.127Z,93912.17
2019-01-28T07:38:43.942Z,93908.66
2019-01-28T07:41:12.756Z,93913.08
2019-01-28T07:43:39.474Z,93907.52
2019-01-28T07:46:08.359Z,93909.34
2019-01-28T07:48:35.044Z,93909.94
2019-01-28T07:51:02.511Z,93928.40
2019-01-28T07:53:28.895Z,93918.63
2019-01-28T07:55:55.697Z,93923.63
2019-01-28T07:58:22.197Z,93918.46
2019-01-28T08:00:48.601Z,93921.32
2019-01-28T08:03:15.074Z,93919.81
2019-01-28T08:05:41.510Z,93902.03
2019-01-28T08:08:07.921Z,93897.88
2019-01-28T08:10:34.288Z,93905.16
2019-01-28T08:13:00.656Z,93902.16
2019-01-28T08:15:26.988Z,93908.55
2019-01-28T08:17:53.371Z,93909.30
2019-01-28T08:20:20.012Z,93911.64
2019-01-28T08:22:46.387Z,93881.84
2019-01-28T08:25:12.727Z,93897.53
2019-01-28T08:27:39.510Z,93895.01
2019-01-28T08:30:05.906Z,93886.77
2019-01-28T08:32:32.374Z,93873.41
2019-01-28T08:34:58.719Z,93885.07
2019-01-28T08:37:25.086Z,93877.98
2019-01-28T08:39:51.458Z,93884.67
2019-01-28T08:42:17.830Z,93884.45
2019-01-28T08:44:44.139Z,93879.94
2019-01-28T08:47:10.570Z,93861.92
2019-01-28T08:49:36.906Z,93865.22
2019-01-28T08:52:03.275Z,93852.13
2019-01-28T08:54:29.666Z,93840.31
2019-01-28T08:56:56.070Z,93839.11
2019-01-28T08:59:22.507Z,93833.27
2019-01-28T09:01:48.903Z,93846.93
2019-01-28T09:04:15.278Z,93841.69
2019-01-28T09:06:41.670Z,93832.09
2019-01-28T09:09:08.025Z,93824.16
2019-01-28T09:11:34.456Z,93813.34
2019-01-28T09:14:01.123Z,93826.91
2019-01-28T09:16:27.527Z,93801.38
2019-01-28T09:18:53.894Z,93816.12
2019-01-28T09:21:20.278Z,93810.80
2019-01-28T09:23:46.602Z,93811.62
2019-01-28T09:26:13.032Z,93799.68
2019-01-28T09:28:39.485Z,93813.86
2019-01-28T09:31:05.856Z,93794.02
2019-01-28T09:33:32.279Z,93783.70
2019-01-28T09:35:58.655Z,93802.56
2019-01-28T09:38:25.121Z,93791.02
2019-01-28T09:40:51.476Z,93803.50
2019-01-28T09:43:17.888Z,93759.39
2019-01-28T09:45:44.315Z,93800.55
2019-01-28T09:48:10.720Z,93792.91
2019-01-28T09:50:37.083Z,93789.20
2019-01-28T09:53:03.508Z,93791.34
2019-01-28T09:55:29.836Z,93783.95
2019-01-28T09:57:56.218Z,93780.22
2019-01-28T10:00:22.710Z,93772.31
2019-01-28T10:02:49.140Z,93774.66
2019-01-28T10:05:15.546Z,93779.67
2019-01-28T10:07:41.968Z,93792.70
2019-01-28T10:10:08.323Z,93768.17
2019-01-28T10:12:34.782Z,93765.77
2019-01-28T10:15:01.076Z,93772.00
2019-01-28T10:17:27.517Z,93756.84
2019-01-28T10:19:53.764Z,93783.70
2019-01-28T10:22:20.179Z,93761.70
2019-01-28T10:24:46.637Z,93764.81
2019-01-28T10:27:13.019Z,93764.54
2019-01-28T10:29:39.402Z,93740.52
2019-01-28T10:32:05.783Z,93758.63
2019-01-28T10:34:32.199Z,93743.09
2019-01-28T10:36:58.558Z,93749.52
2019-01-28T10:39:24.992Z,93755.20
2019-01-28T10:41:51.421Z,93736.18
2019-01-28T10:44:17.782Z,93733.63
2019-01-28T10:46:44.153Z,93725.11
2019-01-28T10:49:10.595Z,93728.85
2019-01-28T10:51:37.082Z,93720.26
2019-01-28T10:54:03.482Z,93715.27
2019-01-28T10:56:29.931Z,93712.09
2019-01-28T10:58:58.000Z,93705.31
2019-01-28T11:01:22.814Z,93711.88
2019-01-28T11:03:49.149Z,93696.63
2019-01-28T11:06:15.513Z,93695.47
2019-01-28T11:08:41.923Z,93708.48
2019-01-28T11:11:08.241Z,93692.58
2019-01-28T11:13:34.832Z,93691.37
2019-01-28T11:16:01.136Z,93673.91
2019-01-28T11:18:27.569Z,93689.11
2019-01-28T11:20:54.048Z,93686.23
2019-01-28T11:23:20.423Z,93665.36
2019-01-28T11:25:47.039Z,93687.16
2019-01-28T11:28:13.332Z,93675.34
2019-01-28T11:30:39.995Z,93675.67
2019-01-28T11:33:06.273Z,93679.71
2019-01-28T11:35:32.745Z,93673.18
2019-01-28T11:37:59.121Z,93663.30
2019-01-28T11:40:25.334Z,93641.38
2019-01-28T11:42:51.765Z,93676.88
2019-01-28T11:45:18.228Z,93655.42
2019-01-28T11:47:44.532Z,93674.16
2019-01-28T11:50:10.926Z,93699.93
2019-01-28T11:52:37.360Z,93683.33
2019-01-28T11:55:04.424Z,93611.52
2019-01-28T11:57:31.937Z,93665.58
2019-01-28T11:59:58.323Z,93667.23
2019-01-28T12:02:24.755Z,93665.14
2019-01-28T12:04:51.192Z,93663.04
2019-01-28T12:07:17.671Z,93638.04
2019-01-28T12:09:44.103Z,93666.59
2019-01-28T12:12:10.875Z,93679.35
2019-01-28T12:14:37.236Z,93673.36
2019-01-28T12:17:03.810Z,93675.92
2019-01-28T12:19:30.411Z,93660.45
2019-01-28T12:21:56.985Z,93675.80
2019-01-28T12:24:23.402Z,93685.96
2019-01-28T12:26:49.807Z,93661.26
2019-01-28T12:29:16.347Z,93665.94
2019-01-28T12:31:42.746Z,93657.26
2019-01-28T12:34:09.213Z,93658.69
2019-01-28T12:36:35.642Z,93648.22
2019-01-28T12:39:02.007Z,93649.31
2019-01-28T12:41:28.476Z,93652.55
2019-01-28T12:43:55.000Z,93645.16
2019-01-28T12:46:21.552Z,93647.38
2019-01-28T12:48:47.981Z,93640.78
2019-01-28T12:51:14.421Z,93627.06
2019-01-28T12:53:40.898Z,93626.92
2019-01-28T12:56:08.513Z,93615.30
2019-01-28T12:58:34.839Z,93607.55
2019-01-28T13:01:01.329Z,93618.67
2019-01-28T13:03:27.726Z,93629.16
2019-01-28T13:05:55.187Z,93601.11
2019-01-28T13:08:21.544Z,93630.47
2019-01-28T13:10:48.034Z,93598.67
2019-01-28T13:13:14.354Z,93618.67
2019-01-28T13:15:40.760Z,93559.04
2019-01-28T13:18:07.161Z,93576.94
2019-01-28T13:20:33.551Z,93542.09
2019-01-28T13:23:00.029Z,93543.39
2019-01-28T13:25:26.428Z,93563.23
2019-01-28T13:27:52.889Z,93564.67
2019-01-28T13:30:19.308Z,93525.82
2019-01-28T13:32:45.667Z,93530.66
2019-01-28T13:35:12.058Z,93544.03
2019-01-28T13:37:38.414Z,93513.68
2019-01-28T13:40:04.862Z,93512.59
2019-01-28T13:42:31.283Z,93501.75
2019-01-28T13:44:59.625Z,93502.59
2019-01-28T13:47:24.095Z,93498.25
2019-01-28T13:49:50.610Z,93493.38
2019-01-28T13:52:16.919Z,93490.84
2019-01-28T13:54:43.365Z,93500.67
2019-01-28T13:57:09.724Z,93485.52
2019-01-28T13:59:36.774Z,93469.23
2019-01-28T14:02:03.279Z,93478.90
2019-01-28T14:04:29.689Z,93470.03
2019-01-28T14:06:56.092Z,93469.41
2019-01-28T14:09:22.425Z,93457.80
2019-01-28T14:11:48.775Z,93456.66
2019-01-28T14:14:15.234Z,93461.81
2019-01-28T14:16:41.672Z,93462.47
2019-01-28T14:19:08.177Z,93461.51
2019-01-28T14:21:34.581Z,93470.84
2019-01-28T14:24:00.937Z,93489.53
2019-01-28T14:26:27.333Z,93481.02
2019-01-28T14:28:53.925Z,93482.78
2019-01-28T14:31:20.211Z,93503.26
2019-01-28T14:33:46.634Z,93513.55
2019-01-28T14:36:12.931Z,93502.91
2019-01-28T14:38:39.292Z,93509.06
2019-01-28T14:41:05.759Z,93502.28
2019-01-28T14:43:32.131Z,93495.02
2019-01-28T14:45:58.632Z,93500.52
2019-01-28T14:48:25.031Z,93519.55
2019-01-28T14:50:51.458Z,93512.59
2019-01-28T14:53:17.968Z,93514.36
2019-01-28T14:55:50.414Z,93525.66
2019-01-28T14:58:16.915Z,93506.47
2019-01-28T15:00:43.090Z,93518.25
2019-01-28T15:03:09.471Z,93521.46
2019-01-28T15:05:35.871Z,93528.89
2019-01-28T15:08:02.235Z,93513.84
2019-01-28T15:10:28.666Z,93508.84
2019-01-28T15:12:55.020Z,93514.00
2019-01-28T15:15:21.437Z,93521.59
2019-01-28T15:17:47.731Z,93525.79
2019-01-28T15:20:14.097Z,93531.30
2019-01-28T15:22:40.595Z,93506.41
2019-01-28T15:25:06.919Z,93523.35
2019-01-28T15:27:33.294Z,93537.87
2019-01-28T15:29:59.662Z,93552.84
2019-01-28T15:32:26.075Z,93543.97
2019-01-28T15:34:52.428Z,93545.12
2019-01-28T15:37:18.787Z,93547.85
2019-01-28T15:39:45.323Z,93555.09
2019-01-28T15:42:11.634Z,93542.22
2019-01-28T15:44:37.990Z,93558.48
2019-01-28T15:47:04.346Z,93548.33
2019-01-28T15:49:30.718Z,93556.23
2019-01-28T15:51:57.048Z,93556.39
2019-01-28T15:54:23.446Z,93549.94
2019-01-28T15:56:49.777Z,93585.69
2019-01-28T15:59:16.148Z,93581.68
2019-01-28T16:01:42.490Z,93580.41
2019-01-28T16:04:08.861Z,93567.00
2019-01-28T16:06:35.190Z,93581.64
2019-01-28T16:09:01.606Z,93561.70
2019-01-28T16:11:27.929Z,93545.73
2019-01-28T16:13:54.290Z,93550.88
2019-01-28T16:16:20.620Z,93564.11
2019-01-28T16:18:46.998Z,93553.94
2019-01-28T16:21:13.424Z,93562.14
2019-01-28T16:23:39.816Z,93564.41
2019-01-28T16:26:06.135Z,93564.23
2019-01-28T16:28:32.478Z,93542.02
2019-01-28T16:30:58.825Z,93544.41
2019-01-28T16:33:25.245Z,93555.82
2019-01-28T16:35:51.563Z,93567.41
2019-01-28T16:38:17.915Z,93564.53
2019-01-28T16:40:44.245Z,93543.88
2019-01-28T16:43:10.595Z,93568.52
2019-01-28T16:45:36.998Z,93576.11
2019-01-28T16:48:03.339Z,93546.31
2019-01-28T16:50:29.711Z,93546.48
2019-01-28T16:52:56.061Z,93561.94
2019-01-28T16:55:22.389Z,93558.23
2019-01-28T16:57:48.755Z,93568.20
2019-01-28T17:00:15.090Z,93560.48
2019-01-28T17:02:41.469Z,93579.16
2019-01-28T17:05:07.855Z,93564.94
2019-01-28T17:07:34.168Z,93549.80
2019-01-28T17:10:00.516Z,93582.16
2019-01-28T17:12:26.861Z,93585.22
2019-01-28T17:14:53.215Z,93574.77
2019-01-28T17:17:19.569Z,93572.66
2019-01-28T17:19:45.948Z,93585.22
2019-01-28T17:22:12.291Z,93572.33
2019-01-28T17:24:38.635Z,93576.41
2019-01-28T17:27:04.964Z,93553.03
2019-01-28T17:29:31.341Z,93588.75
2019-01-28T17:31:57.885Z,93593.36
2019-01-28T17:34:24.230Z,93600.28
2019-01-28T17:36:50.586Z,93594.48
2019-01-28T17:39:17.001Z,93603.81
2019-01-28T17:41:43.351Z,93583.01
2019-01-28T17:44:09.635Z,93577.02
2019-01-28T17:46:35.975Z,93595.30
2019-01-28T17:49:02.314Z,93589.61
2019-01-28T17:51:28.696Z,93576.02
2019-01-28T17:53:55.027Z,93596.75
2019-01-28T17:56:21.375Z,93603.05
2019-01-28T17:58:47.853Z,93586.81
2019-01-28T18:01:14.110Z,93607.11
2019-01-28T18:03:40.482Z,93589.50
2019-01-28T18:06:06.873Z,93589.70
2019-01-28T18:08:33.218Z,93614.16
2019-01-28T18:10:59.613Z,93595.62
2019-01-28T18:13:25.881Z,93601.83
2019-01-28T18:15:52.208Z,93602.51
2019-01-28T18:18:18.605Z,93581.41
2019-01-28T18:20:51.532Z,93611.34
2019-01-28T18:23:11.356Z,93595.87
2019-01-28T18:25:37.692Z,93605.99
2019-01-28T18:28:04.029Z,93618.28
2019-01-28T18:30:30.411Z,93625.73
2019-01-28T18:32:56.743Z,93612.26
2019-01-28T18:35:23.122Z,93607.72
2019-01-28T18:37:49.469Z,93620.08
2019-01-28T18:40:15.860Z,93631.66
2019-01-28T18:42:42.167Z,93634.41
2019-01-28T18:45:08.491Z,93631.66
2019-01-28T18:47:34.827Z,93634.36
2019-01-28T18:50:01.189Z,93619.39
2019-01-28T18:52:27.628Z,93622.61
2019-01-28T18:54:54.004Z,93608.45
2019-01-28T18:57:20.390Z,93618.72
2019-01-28T18:59:46.677Z,93636.59
2019-01-28T19:02:13.063Z,93636.25
2019-01-28T19:04:39.489Z,93619.66
2019-01-28T19:07:05.862Z,93630.73
2019-01-28T19:09:32.245Z,93641.36
2019-01-28T19:11:58.584Z,93612.06
2019-01-28T19:14:24.947Z,93609.42
2019-01-28T19:16:51.346Z,93652.29
2019-01-28T19:19:17.716Z,93653.38
2019-01-28T19:21:44.135Z,93648.48
2019-01-28T19:24:10.552Z,93645.44
2019-01-28T19:26:36.903Z,93652.98
2019-01-28T19:29:03.261Z,93638.36
2019-01-28T19:31:29.676Z,93631.08
2019-01-28T19:33:56.034Z,93639.95
2019-01-28T19:36:22.371Z,93643.63
2019-01-28T19:38:48.738Z,93649.86
2019-01-28T19:41:15.103Z,93645.52
2019-01-28T19:43:41.409Z,93631.06
2019-01-28T19:46:07.773Z,93629.44
2019-01-28T19:48:34.120Z,93650.49
2019-01-28T19:51:00.544Z,93655.80
2019-01-28T19:53:26.853Z,93640.37
2019-01-28T19:55:53.244Z,93659.95
2019-01-28T19:58:19.563Z,93645.64
2019-01-28T20:00:46.011Z,93633.89
2019-01-28T20:03:12.474Z,93628.88
2019-01-28T20:05:38.814Z,93675.70
2019-01-28T20:08:05.168Z,93635.95
2019-01-28T20:10:31.512Z,93671.66
2019-01-28T20:12:57.885Z,93672.30
2019-01-28T20:15:24.330Z,93669.73
2019-01-28T20:17:50.597Z,93685.29
2019-01-28T20:20:17.003Z,93669.68
2019-01-28T20:22:43.349Z,93659.86
2019-01-28T20:25:09.803Z,93669.81
2019-01-28T20:27:36.106Z,93668.34
2019-01-28T20:30:02.479Z,93664.31
2019-01-28T20:32:28.796Z,93668.81
2019-01-28T20:34:55.146Z,93667.52
2019-01-28T20:37:21.551Z,93695.17
2019-01-28T20:39:47.945Z,93678.80
2019-01-28T20:42:14.251Z,93657.36
2019-01-28T20:44:40.533Z,93671.21
2019-01-28T20:47:07.002Z,93654.66
2019-01-28T20:49:33.329Z,93659.93
2019-01-28T20:51:59.706Z,93650.59
2019-01-28T20:54:26.049Z,93658.78
2019-01-28T20:56:52.381Z,93675.99
2019-01-28T20:59:18.776Z,93656.50
2019-01-28T21:01:45.236Z,93668.88
2019-01-28T21:04:11.613Z,93674.50
2019-01-28T21:06:37.964Z,93663.43
2019-01-28T21:09:04.287Z,93677.07
2019-01-28T21:11:30.841Z,93667.23
2019-01-28T21:13:57.208Z,93670.09
2019-01-28T21:16:23.577Z,93656.61
2019-01-28T21:18:49.934Z,93665.66
2019-01-28T21:21:16.267Z,93662.09
2019-01-28T21:23:42.654Z,93667.06
2019-01-28T21:26:09.003Z,93655.62
2019-01-28T21:28:35.403Z,93657.25
2019-01-28T21:31:01.666Z,93659.47
2019-01-28T21:33:28.096Z,93656.56
2019-01-28T21:35:54.416Z,93688.39
2019-01-28T21:38:20.751Z,93676.66
2019-01-28T21:40:47.116Z,93671.34
2019-01-28T21:43:13.441Z,93702.37
2019-01-28T21:45:39.797Z,93658.77
2019-01-28T21:48:06.188Z,93704.10
2019-01-28T21:50:32.587Z,93682.37
2019-01-28T21:52:58.918Z,93695.10
2019-01-28T21:55:25.244Z,93680.97
2019-01-28T21:57:51.631Z,93704.64
2019-01-28T22:00:18.068Z,93682.33
2019-01-28T22:02:44.362Z,93684.08
2019-01-28T22:05:10.684Z,93709.19
2019-01-28T22:07:37.023Z,93697.15
2019-01-28T22:10:03.459Z,93700.79
2019-01-28T22:12:29.824Z,93694.34
2019-01-28T22:14:56.173Z,93682.14
2019-01-28T22:17:22.506Z,93697.56
2019-01-28T22:19:48.897Z,93675.06
2019-01-28T22:22:15.264Z,93691.95
2019-01-28T22:24:41.637Z,93688.86
2019-01-28T22:27:07.943Z,93703.00
2019-01-28T22:29:34.360Z,93689.15
2019-01-28T22:32:00.637Z,93701.06
2019-01-28T22:34:27.019Z,93692.06
2019-01-28T22:36:53.349Z,93687.39
2019-01-28T22:39:19.690Z,93680.49
2019-01-28T22:41:46.085Z,93689.62
2019-01-28T22:44:12.421Z,93684.01
2019-01-28T22:46:38.806Z,93709.18
2019-01-28T22:49:05.137Z,93701.34
2019-01-28T22:51:31.486Z,93693.29
2019-01-28T22:53:57.827Z,93673.54
2019-01-28T22:56:24.209Z,93689.09
2019-01-28T22:58:50.593Z,93698.43
2019-01-28T23:01:16.943Z,93692.00
2019-01-28T23:03:43.298Z,93688.44
2019-01-28T23:06:09.632Z,93674.30
2019-01-28T23:08:36.006Z,93689.64
2019-01-28T23:11:02.337Z,93684.58
2019-01-28T23:13:28.706Z,93684.31
2019-01-28T23:15:55.015Z,93695.43
2019-01-28T23:18:21.384Z,93694.12
2019-01-28T23:20:47.739Z,93703.64
2019-01-28T23:23:14.075Z,93693.83
2019-01-28T23:25:40.432Z,93691.86
2019-01-28T23:28:06.833Z,93679.80
2019-01-28T23:30:33.194Z,93702.42
2019-01-28T23:32:59.566Z,93694.77
2019-01-28T23:35:26.015Z,93691.02
2019-01-28T23:37:52.345Z,93710.19
2019-01-28T23:40:18.679Z,93688.51
2019-01-28T23:42:44.946Z,93696.81
2019-01-28T23:45:11.342Z,93700.20
2019-01-28T23:47:37.705Z,93695.88
2019-01-28T23:50:04.142Z,93701.14
2019-01-28T23:52:30.496Z,93704.39
2019-01-28T23:54:56.925Z,93702.30
2019-01-28T23:57:23.255Z,93690.39
2019-01-28T23:59:49.630Z,93708.53
